sensor_id;sensor_type;location;lat;lon;timestamp;P1;durP1;ratioP1;P2;durP2;ratioP2
76854;SDS011;65828;44.726;37.764;2022-12-18T08:29:34;9.30;;;3.92;;
76854;SDS011;65828;44.726;37.764;2022-12-18T08:32:30;9.48;;;3.97;;
76854;SDS011;65828;44.726;37.764;2022-12-18T08:35:35;9.95;;;4.22;;
76854;SDS011;65828;44.726;37.764;2022-12-18T08:38:30;9.55;;;4.60;;
76854;SDS011;65828;44.726;37.764;2022-12-18T08:41:20;9.85;;;4.57;;
76854;SDS011;65828;44.726;37.764;2022-12-18T08:44:16;9.88;;;4.32;;
76854;SDS011;65828;44.726;37.764;2022-12-18T08:47:30;8.85;;;4.15;;
76854;SDS011;65828;44.726;37.764;2022-12-18T08:50:18;11.55;;;5.00;;
76854;SDS011;65828;44.726;37.764;2022-12-18T08:53:08;11.13;;;4.45;;
76854;SDS011;65828;44.726;37.764;2022-12-18T08:55:57;10.25;;;4.53;;
76854;SDS011;65828;44.726;37.764;2022-12-18T08:58:51;10.95;;;4.68;;
76854;SDS011;65828;44.726;37.764;2022-12-18T09:01:43;9.70;;;4.53;;
76854;SDS011;65828;44.726;37.764;2022-12-18T09:04:41;12.18;;;4.60;;
76854;SDS011;65828;44.726;37.764;2022-12-18T09:07:38;11.23;;;4.75;;
76854;SDS011;65828;44.726;37.764;2022-12-18T09:10:45;11.35;;;4.68;;
76854;SDS011;65828;44.726;37.764;2022-12-18T09:13:44;9.13;;;4.68;;
76854;SDS011;65828;44.726;37.764;2022-12-18T09:16:33;12.20;;;4.65;;
76854;SDS011;65828;44.726;37.764;2022-12-18T09:19:22;9.40;;;4.20;;
76854;SDS011;65828;44.726;37.764;2022-12-18T09:22:11;9.10;;;4.15;;
76854;SDS011;65828;44.726;37.764;2022-12-18T09:25:03;10.23;;;4.93;;
76854;SDS011;65828;44.726;37.764;2022-12-18T09:27:56;9.07;;;4.00;;
76854;SDS011;65828;44.726;37.764;2022-12-18T09:30:48;9.43;;;4.43;;
76854;SDS011;65828;44.726;37.764;2022-12-18T09:36:35;10.32;;;5.30;;
76854;SDS011;65828;44.726;37.764;2022-12-18T09:39:24;12.05;;;4.22;;
76854;SDS011;65828;44.726;37.764;2022-12-18T09:42:18;11.48;;;4.72;;
76854;SDS011;65828;44.726;37.764;2022-12-18T09:45:11;10.27;;;3.75;;
76854;SDS011;65828;44.726;37.764;2022-12-18T09:48:29;9.18;;;3.90;;
76854;SDS011;65828;44.726;37.764;2022-12-18T09:51:36;11.18;;;3.83;;
76854;SDS011;65828;44.726;37.764;2022-12-18T09:54:40;10.30;;;4.00;;
76854;SDS011;65828;44.726;37.764;2022-12-18T09:58:04;10.75;;;4.10;;
76854;SDS011;65828;44.726;37.764;2022-12-18T10:00:55;8.93;;;3.42;;
76854;SDS011;65828;44.726;37.764;2022-12-18T10:03:46;8.77;;;4.15;;
76854;SDS011;65828;44.726;37.764;2022-12-18T10:19:14;9.68;;;4.30;;
76854;SDS011;65828;44.726;37.764;2022-12-18T10:22:43;12.25;;;4.00;;
76854;SDS011;65828;44.726;37.764;2022-12-18T10:25:54;10.85;;;4.70;;
76854;SDS011;65828;44.726;37.764;2022-12-18T10:28:40;11.40;;;4.43;;
76854;SDS011;65828;44.726;37.764;2022-12-18T10:31:40;8.75;;;4.20;;
76854;SDS011;65828;44.726;37.764;2022-12-18T10:34:38;10.93;;;3.90;;
76854;SDS011;65828;44.726;37.764;2022-12-18T10:37:36;9.48;;;3.90;;
76854;SDS011;65828;44.726;37.764;2022-12-18T10:41:01;8.65;;;3.88;;
76854;SDS011;65828;44.726;37.764;2022-12-18T10:46:54;12.48;;;4.80;;
76854;SDS011;65828;44.726;37.764;2022-12-18T10:49:58;9.27;;;4.28;;
76854;SDS011;65828;44.726;37.764;2022-12-18T10:52:35;8.43;;;3.90;;
76854;SDS011;65828;44.726;37.764;2022-12-18T10:55:13;9.73;;;3.92;;
76854;SDS011;65828;44.726;37.764;2022-12-18T10:58:05;9.00;;;4.20;;
76854;SDS011;65828;44.726;37.764;2022-12-18T11:01:13;8.38;;;4.28;;
76854;SDS011;65828;44.726;37.764;2022-12-18T11:06:29;8.35;;;4.15;;
76854;SDS011;65828;44.726;37.764;2022-12-18T11:09:20;10.73;;;4.45;;
76854;SDS011;65828;44.726;37.764;2022-12-18T11:12:25;8.60;;;4.65;;
76854;SDS011;65828;44.726;37.764;2022-12-18T11:15:27;9.43;;;4.30;;
76854;SDS011;65828;44.726;37.764;2022-12-18T11:18:29;8.35;;;4.03;;
76854;SDS011;65828;44.726;37.764;2022-12-18T11:21:20;8.43;;;4.50;;
76854;SDS011;65828;44.726;37.764;2022-12-18T11:24:30;9.45;;;4.53;;
76854;SDS011;65828;44.726;37.764;2022-12-18T11:27:30;10.98;;;4.10;;
76854;SDS011;65828;44.726;37.764;2022-12-18T11:30:26;9.40;;;4.10;;
76854;SDS011;65828;44.726;37.764;2022-12-18T11:33:21;9.07;;;3.80;;
76854;SDS011;65828;44.726;37.764;2022-12-18T11:36:13;8.65;;;4.13;;
76854;SDS011;65828;44.726;37.764;2022-12-18T11:39:29;8.93;;;4.10;;
76854;SDS011;65828;44.726;37.764;2022-12-18T11:41:58;9.15;;;4.38;;
76854;SDS011;65828;44.726;37.764;2022-12-18T11:51:47;9.52;;;3.95;;
76854;SDS011;65828;44.726;37.764;2022-12-18T11:54:51;10.57;;;4.45;;
76854;SDS011;65828;44.726;37.764;2022-12-18T12:11:04;10.25;;;5.03;;
76854;SDS011;65828;44.726;37.764;2022-12-18T12:20:06;10.68;;;4.70;;
76854;SDS011;65828;44.726;37.764;2022-12-18T12:23:35;13.18;;;5.40;;
76854;SDS011;65828;44.726;37.764;2022-12-18T12:26:23;10.02;;;5.38;;
76854;SDS011;65828;44.726;37.764;2022-12-18T12:35:31;9.50;;;4.35;;
76854;SDS011;65828;44.726;37.764;2022-12-18T12:38:47;10.98;;;4.63;;
76854;SDS011;65828;44.726;37.764;2022-12-18T12:41:30;10.13;;;4.68;;
76854;SDS011;65828;44.726;37.764;2022-12-18T12:44:28;10.10;;;4.78;;
76854;SDS011;65828;44.726;37.764;2022-12-18T12:47:10;11.93;;;5.05;;
76854;SDS011;65828;44.726;37.764;2022-12-18T12:50:21;10.30;;;4.90;;
76854;SDS011;65828;44.726;37.764;2022-12-18T12:53:24;10.85;;;5.32;;
76854;SDS011;65828;44.726;37.764;2022-12-18T12:56:24;10.00;;;4.88;;
76854;SDS011;65828;44.726;37.764;2022-12-18T12:59:50;11.80;;;4.78;;
76854;SDS011;65828;44.726;37.764;2022-12-18T13:06:18;10.50;;;4.65;;
76854;SDS011;65828;44.726;37.764;2022-12-18T13:09:13;10.32;;;5.05;;
76854;SDS011;65828;44.726;37.764;2022-12-18T13:12:03;11.73;;;5.10;;
76854;SDS011;65828;44.726;37.764;2022-12-18T13:18:40;12.02;;;4.72;;
76854;SDS011;65828;44.726;37.764;2022-12-18T13:21:33;10.98;;;4.57;;
76854;SDS011;65828;44.726;37.764;2022-12-18T13:24:25;10.00;;;4.70;;
76854;SDS011;65828;44.726;37.764;2022-12-18T13:34:19;9.50;;;5.15;;
76854;SDS011;65828;44.726;37.764;2022-12-18T13:37:42;9.85;;;4.95;;
76854;SDS011;65828;44.726;37.764;2022-12-18T13:46:05;8.88;;;3.85;;
76854;SDS011;65828;44.726;37.764;2022-12-18T13:52:40;9.48;;;3.95;;
76854;SDS011;65828;44.726;37.764;2022-12-18T13:55:36;9.57;;;3.90;;
76854;SDS011;65828;44.726;37.764;2022-12-18T13:58:13;7.97;;;3.85;;
76854;SDS011;65828;44.726;37.764;2022-12-18T14:00:46;8.10;;;3.70;;
76854;SDS011;65828;44.726;37.764;2022-12-18T14:03:23;8.75;;;3.20;;
76854;SDS011;65828;44.726;37.764;2022-12-18T14:06:00;7.15;;;3.00;;
76854;SDS011;65828;44.726;37.764;2022-12-18T14:08:38;7.40;;;3.00;;
76854;SDS011;65828;44.726;37.764;2022-12-18T14:11:35;8.77;;;2.65;;
76854;SDS011;65828;44.726;37.764;2022-12-18T14:14:35;6.35;;;2.40;;
76854;SDS011;65828;44.726;37.764;2022-12-18T14:17:31;8.48;;;2.80;;
76854;SDS011;65828;44.726;37.764;2022-12-18T14:20:32;6.22;;;2.00;;
76854;SDS011;65828;44.726;37.764;2022-12-18T14:23:27;4.82;;;1.55;;
76854;SDS011;65828;44.726;37.764;2022-12-18T14:26:29;6.00;;;1.92;;
76854;SDS011;65828;44.726;37.764;2022-12-18T14:29:28;4.95;;;1.80;;
76854;SDS011;65828;44.726;37.764;2022-12-18T14:32:21;4.47;;;1.60;;
76854;SDS011;65828;44.726;37.764;2022-12-18T14:35:13;8.48;;;1.95;;
76854;SDS011;65828;44.726;37.764;2022-12-18T14:38:24;5.22;;;1.58;;
76854;SDS011;65828;44.726;37.764;2022-12-18T14:41:21;5.97;;;1.75;;
76854;SDS011;65828;44.726;37.764;2022-12-18T14:44:12;6.75;;;1.80;;
76854;SDS011;65828;44.726;37.764;2022-12-18T14:47:15;5.93;;;2.00;;
76854;SDS011;65828;44.726;37.764;2022-12-18T14:50:14;6.57;;;2.03;;
76854;SDS011;65828;44.726;37.764;2022-12-18T14:59:13;5.65;;;1.90;;
76854;SDS011;65828;44.726;37.764;2022-12-18T15:02:25;7.38;;;2.25;;
76854;SDS011;65828;44.726;37.764;2022-12-18T15:05:30;7.60;;;2.38;;
76854;SDS011;65828;44.726;37.764;2022-12-18T15:08:36;8.05;;;2.45;;
76854;SDS011;65828;44.726;37.764;2022-12-18T15:20:00;7.43;;;2.33;;
76854;SDS011;65828;44.726;37.764;2022-12-18T15:22:43;7.75;;;2.55;;
76854;SDS011;65828;44.726;37.764;2022-12-18T15:25:43;8.18;;;3.30;;
76854;SDS011;65828;44.726;37.764;2022-12-18T15:28:24;7.90;;;2.70;;
76854;SDS011;65828;44.726;37.764;2022-12-18T15:36:53;9.57;;;2.97;;
76854;SDS011;65828;44.726;37.764;2022-12-18T15:39:54;6.93;;;2.67;;
76854;SDS011;65828;44.726;37.764;2022-12-18T15:46:26;8.63;;;3.35;;
76854;SDS011;65828;44.726;37.764;2022-12-18T15:49:18;8.77;;;3.53;;
76854;SDS011;65828;44.726;37.764;2022-12-18T15:52:16;8.88;;;3.50;;
76854;SDS011;65828;44.726;37.764;2022-12-18T15:55:14;9.90;;;3.90;;
76854;SDS011;65828;44.726;37.764;2022-12-18T15:58:43;11.82;;;4.38;;
76854;SDS011;65828;44.726;37.764;2022-12-18T16:01:40;12.30;;;3.92;;
76854;SDS011;65828;44.726;37.764;2022-12-18T16:04:41;12.05;;;4.88;;
76854;SDS011;65828;44.726;37.764;2022-12-18T16:07:35;13.90;;;5.65;;
76854;SDS011;65828;44.726;37.764;2022-12-18T16:10:35;14.93;;;6.55;;
76854;SDS011;65828;44.726;37.764;2022-12-18T16:13:26;12.68;;;5.70;;
76854;SDS011;65828;44.726;37.764;2022-12-18T16:16:42;11.93;;;5.30;;
76854;SDS011;65828;44.726;37.764;2022-12-18T16:19:33;13.02;;;6.00;;
76854;SDS011;65828;44.726;37.764;2022-12-18T16:22:29;14.13;;;5.38;;
76854;SDS011;65828;44.726;37.764;2022-12-18T16:25:25;11.35;;;4.97;;
76854;SDS011;65828;44.726;37.764;2022-12-18T16:28:16;11.95;;;5.32;;
76854;SDS011;65828;44.726;37.764;2022-12-18T16:30:57;11.60;;;4.85;;
76854;SDS011;65828;44.726;37.764;2022-12-18T16:34:09;13.60;;;5.55;;
76854;SDS011;65828;44.726;37.764;2022-12-18T16:37:13;12.50;;;5.25;;
76854;SDS011;65828;44.726;37.764;2022-12-18T16:40:04;12.48;;;4.75;;
76854;SDS011;65828;44.726;37.764;2022-12-18T16:43:00;12.27;;;5.18;;
76854;SDS011;65828;44.726;37.764;2022-12-18T16:45:33;10.80;;;4.45;;
76854;SDS011;65828;44.726;37.764;2022-12-18T16:48:12;11.82;;;4.57;;
76854;SDS011;65828;44.726;37.764;2022-12-18T16:51:14;13.90;;;5.05;;
76854;SDS011;65828;44.726;37.764;2022-12-18T16:54:18;12.13;;;5.30;;
76854;SDS011;65828;44.726;37.764;2022-12-18T16:57:16;14.20;;;5.75;;
76854;SDS011;65828;44.726;37.764;2022-12-18T17:00:19;16.80;;;6.43;;
76854;SDS011;65828;44.726;37.764;2022-12-18T17:03:10;12.32;;;5.53;;
76854;SDS011;65828;44.726;37.764;2022-12-18T17:05:45;13.60;;;6.25;;
76854;SDS011;65828;44.726;37.764;2022-12-18T17:08:25;12.50;;;5.35;;
76854;SDS011;65828;44.726;37.764;2022-12-18T17:11:14;14.38;;;5.88;;
76854;SDS011;65828;44.726;37.764;2022-12-18T17:14:07;14.98;;;5.70;;
76854;SDS011;65828;44.726;37.764;2022-12-18T17:17:03;13.40;;;5.55;;
76854;SDS011;65828;44.726;37.764;2022-12-18T17:19:43;13.85;;;5.65;;
76854;SDS011;65828;44.726;37.764;2022-12-18T17:22:34;11.25;;;5.43;;
76854;SDS011;65828;44.726;37.764;2022-12-18T17:25:38;11.60;;;5.15;;
76854;SDS011;65828;44.726;37.764;2022-12-18T17:28:37;14.30;;;6.30;;
76854;SDS011;65828;44.726;37.764;2022-12-18T17:31:34;12.77;;;5.28;;
76854;SDS011;65828;44.726;37.764;2022-12-18T17:34:37;11.98;;;5.07;;
76854;SDS011;65828;44.726;37.764;2022-12-18T17:37:32;12.20;;;5.43;;
76854;SDS011;65828;44.726;37.764;2022-12-18T17:40:34;12.85;;;5.45;;
76854;SDS011;65828;44.726;37.764;2022-12-18T17:43:22;16.00;;;5.63;;
76854;SDS011;65828;44.726;37.764;2022-12-18T17:46:18;13.15;;;5.97;;
76854;SDS011;65828;44.726;37.764;2022-12-18T17:49:17;13.25;;;5.38;;
76854;SDS011;65828;44.726;37.764;2022-12-18T17:52:16;13.25;;;5.85;;
76854;SDS011;65828;44.726;37.764;2022-12-18T17:55:10;12.10;;;5.35;;
76854;SDS011;65828;44.726;37.764;2022-12-18T17:58:02;13.90;;;6.13;;
76854;SDS011;65828;44.726;37.764;2022-12-18T18:01:03;13.25;;;6.38;;
76854;SDS011;65828;44.726;37.764;2022-12-18T18:04:02;15.40;;;6.65;;
76854;SDS011;65828;44.726;37.764;2022-12-18T18:07:04;14.00;;;6.38;;
76854;SDS011;65828;44.726;37.764;2022-12-18T18:10:08;13.13;;;6.97;;
76854;SDS011;65828;44.726;37.764;2022-12-18T18:13:16;14.30;;;7.38;;
76854;SDS011;65828;44.726;37.764;2022-12-18T18:16:37;14.00;;;6.32;;
76854;SDS011;65828;44.726;37.764;2022-12-18T18:19:34;14.48;;;6.63;;
76854;SDS011;65828;44.726;37.764;2022-12-18T18:22:35;13.90;;;6.40;;
76854;SDS011;65828;44.726;37.764;2022-12-18T18:25:36;15.02;;;6.57;;
76854;SDS011;65828;44.726;37.764;2022-12-18T18:28:33;14.52;;;6.45;;
76854;SDS011;65828;44.726;37.764;2022-12-18T18:31:35;14.80;;;6.57;;
76854;SDS011;65828;44.726;37.764;2022-12-18T18:34:34;14.23;;;7.25;;
76854;SDS011;65828;44.726;37.764;2022-12-18T18:37:22;14.88;;;6.72;;
76854;SDS011;65828;44.726;37.764;2022-12-18T18:40:12;15.63;;;6.32;;
76854;SDS011;65828;44.726;37.764;2022-12-18T18:43:14;13.77;;;6.68;;
76854;SDS011;65828;44.726;37.764;2022-12-18T18:45:57;16.48;;;6.88;;
76854;SDS011;65828;44.726;37.764;2022-12-18T18:48:36;13.10;;;6.32;;
76854;SDS011;65828;44.726;37.764;2022-12-18T18:51:17;15.18;;;6.28;;
76854;SDS011;65828;44.726;37.764;2022-12-18T18:53:59;15.77;;;6.88;;
76854;SDS011;65828;44.726;37.764;2022-12-18T18:56:35;13.30;;;7.03;;
76854;SDS011;65828;44.726;37.764;2022-12-18T18:59:23;16.73;;;7.68;;
76854;SDS011;65828;44.726;37.764;2022-12-18T19:02:26;13.95;;;6.55;;
76854;SDS011;65828;44.726;37.764;2022-12-18T19:05:25;14.88;;;6.78;;
76854;SDS011;65828;44.726;37.764;2022-12-18T19:08:45;15.27;;;7.00;;
76854;SDS011;65828;44.726;37.764;2022-12-18T19:11:46;16.00;;;6.88;;
76854;SDS011;65828;44.726;37.764;2022-12-18T19:15:06;14.30;;;7.05;;
76854;SDS011;65828;44.726;37.764;2022-12-18T19:18:02;13.15;;;6.43;;
76854;SDS011;65828;44.726;37.764;2022-12-18T19:24:04;13.32;;;6.53;;
76854;SDS011;65828;44.726;37.764;2022-12-18T19:26:59;13.82;;;5.97;;
76854;SDS011;65828;44.726;37.764;2022-12-18T19:33:06;14.30;;;6.88;;
76854;SDS011;65828;44.726;37.764;2022-12-18T19:38:53;15.15;;;6.63;;
76854;SDS011;65828;44.726;37.764;2022-12-18T19:41:36;13.77;;;6.65;;
76854;SDS011;65828;44.726;37.764;2022-12-18T19:44:10;16.38;;;7.28;;
76854;SDS011;65828;44.726;37.764;2022-12-18T19:46:48;15.52;;;7.88;;
76854;SDS011;65828;44.726;37.764;2022-12-18T19:49:27;17.30;;;6.82;;
76854;SDS011;65828;44.726;37.764;2022-12-18T19:52:30;18.35;;;7.68;;
76854;SDS011;65828;44.726;37.764;2022-12-18T19:55:26;14.38;;;7.47;;
76854;SDS011;65828;44.726;37.764;2022-12-18T19:58:16;14.13;;;6.78;;
76854;SDS011;65828;44.726;37.764;2022-12-18T20:01:15;14.43;;;6.75;;
76854;SDS011;65828;44.726;37.764;2022-12-18T20:04:05;16.73;;;7.95;;
76854;SDS011;65828;44.726;37.764;2022-12-18T20:07:08;19.33;;;8.20;;
76854;SDS011;65828;44.726;37.764;2022-12-18T20:10:06;16.73;;;7.57;;
76854;SDS011;65828;44.726;37.764;2022-12-18T20:13:07;15.45;;;6.95;;
76854;SDS011;65828;44.726;37.764;2022-12-18T20:16:03;16.52;;;7.47;;
76854;SDS011;65828;44.726;37.764;2022-12-18T20:18:43;18.83;;;7.78;;
76854;SDS011;65828;44.726;37.764;2022-12-18T20:21:31;15.68;;;6.70;;
76854;SDS011;65828;44.726;37.764;2022-12-18T20:24:23;13.32;;;6.65;;
76854;SDS011;65828;44.726;37.764;2022-12-18T20:27:12;15.57;;;7.45;;
76854;SDS011;65828;44.726;37.764;2022-12-18T20:29:46;16.15;;;6.78;;
76854;SDS011;65828;44.726;37.764;2022-12-18T20:32:35;16.73;;;7.90;;
76854;SDS011;65828;44.726;37.764;2022-12-18T20:35:08;15.70;;;6.97;;
76854;SDS011;65828;44.726;37.764;2022-12-18T20:37:44;14.77;;;6.97;;
76854;SDS011;65828;44.726;37.764;2022-12-18T20:40:40;17.70;;;7.53;;
76854;SDS011;65828;44.726;37.764;2022-12-18T20:43:31;16.25;;;7.53;;
76854;SDS011;65828;44.726;37.764;2022-12-18T20:46:31;14.68;;;6.80;;
76854;SDS011;65828;44.726;37.764;2022-12-18T20:49:07;15.02;;;7.40;;
76854;SDS011;65828;44.726;37.764;2022-12-18T20:51:43;15.90;;;7.53;;
76854;SDS011;65828;44.726;37.764;2022-12-18T20:54:20;15.35;;;6.95;;
76854;SDS011;65828;44.726;37.764;2022-12-18T20:57:00;14.25;;;6.65;;
76854;SDS011;65828;44.726;37.764;2022-12-18T20:59:34;15.98;;;7.35;;
76854;SDS011;65828;44.726;37.764;2022-12-18T21:02:11;15.73;;;7.32;;
76854;SDS011;65828;44.726;37.764;2022-12-18T21:04:56;16.77;;;6.93;;
76854;SDS011;65828;44.726;37.764;2022-12-18T21:07:55;17.27;;;6.93;;
76854;SDS011;65828;44.726;37.764;2022-12-18T21:10:57;16.15;;;7.13;;
76854;SDS011;65828;44.726;37.764;2022-12-18T21:14:32;14.00;;;6.07;;
76854;SDS011;65828;44.726;37.764;2022-12-18T21:17:32;13.90;;;6.93;;
76854;SDS011;65828;44.726;37.764;2022-12-18T21:20:37;17.60;;;7.22;;
76854;SDS011;65828;44.726;37.764;2022-12-18T21:23:33;14.55;;;7.25;;
76854;SDS011;65828;44.726;37.764;2022-12-18T21:26:32;16.38;;;7.00;;
76854;SDS011;65828;44.726;37.764;2022-12-18T21:29:27;13.95;;;6.57;;
76854;SDS011;65828;44.726;37.764;2022-12-18T21:32:31;17.35;;;6.90;;
76854;SDS011;65828;44.726;37.764;2022-12-18T21:35:32;14.38;;;6.40;;
76854;SDS011;65828;44.726;37.764;2022-12-18T21:38:20;14.13;;;6.35;;
76854;SDS011;65828;44.726;37.764;2022-12-18T21:41:15;14.38;;;6.55;;
76854;SDS011;65828;44.726;37.764;2022-12-18T21:44:24;15.15;;;6.30;;
76854;SDS011;65828;44.726;37.764;2022-12-18T21:47:16;13.95;;;6.15;;
76854;SDS011;65828;44.726;37.764;2022-12-18T21:49:52;14.07;;;6.35;;
76854;SDS011;65828;44.726;37.764;2022-12-18T21:52:44;13.02;;;6.20;;
76854;SDS011;65828;44.726;37.764;2022-12-18T21:55:36;13.45;;;6.53;;
76854;SDS011;65828;44.726;37.764;2022-12-18T21:58:27;13.00;;;6.25;;
76854;SDS011;65828;44.726;37.764;2022-12-18T22:01:19;15.75;;;6.32;;
76854;SDS011;65828;44.726;37.764;2022-12-18T22:04:10;13.55;;;6.43;;
76854;SDS011;65828;44.726;37.764;2022-12-18T22:07:02;13.98;;;6.40;;
76854;SDS011;65828;44.726;37.764;2022-12-18T22:10:05;13.80;;;6.20;;
76854;SDS011;65828;44.726;37.764;2022-12-18T22:13:07;13.90;;;5.85;;
76854;SDS011;65828;44.726;37.764;2022-12-18T22:16:10;14.88;;;5.97;;
76854;SDS011;65828;44.726;37.764;2022-12-18T22:19:02;13.23;;;5.70;;
76854;SDS011;65828;44.726;37.764;2022-12-18T22:22:01;13.00;;;6.00;;
76854;SDS011;65828;44.726;37.764;2022-12-18T22:24:52;13.13;;;5.72;;
76854;SDS011;65828;44.726;37.764;2022-12-18T22:27:47;13.48;;;5.88;;
76854;SDS011;65828;44.726;37.764;2022-12-18T22:30:57;12.63;;;5.60;;
76854;SDS011;65828;44.726;37.764;2022-12-18T22:33:51;14.80;;;5.88;;
76854;SDS011;65828;44.726;37.764;2022-12-18T22:36:40;12.60;;;5.53;;
76854;SDS011;65828;44.726;37.764;2022-12-18T22:39:41;11.65;;;5.35;;
76854;SDS011;65828;44.726;37.764;2022-12-18T22:42:41;11.68;;;5.30;;
76854;SDS011;65828;44.726;37.764;2022-12-18T22:45:40;13.35;;;4.97;;
76854;SDS011;65828;44.726;37.764;2022-12-18T22:48:46;14.05;;;5.90;;
76854;SDS011;65828;44.726;37.764;2022-12-18T22:51:41;12.90;;;5.45;;
76854;SDS011;65828;44.726;37.764;2022-12-18T22:54:39;13.65;;;5.32;;
76854;SDS011;65828;44.726;37.764;2022-12-18T22:57:33;11.82;;;5.20;;
76854;SDS011;65828;44.726;37.764;2022-12-18T23:00:31;13.57;;;5.72;;
76854;SDS011;65828;44.726;37.764;2022-12-18T23:03:30;12.43;;;5.35;;
76854;SDS011;65828;44.726;37.764;2022-12-18T23:06:31;12.30;;;5.20;;
76854;SDS011;65828;44.726;37.764;2022-12-18T23:09:15;12.38;;;5.22;;
76854;SDS011;65828;44.726;37.764;2022-12-18T23:11:51;13.05;;;5.53;;
76854;SDS011;65828;44.726;37.764;2022-12-18T23:14:28;12.23;;;5.45;;
76854;SDS011;65828;44.726;37.764;2022-12-18T23:17:04;13.48;;;5.78;;
76854;SDS011;65828;44.726;37.764;2022-12-18T23:19:40;11.07;;;5.68;;
76854;SDS011;65828;44.726;37.764;2022-12-18T23:22:13;13.80;;;6.35;;
76854;SDS011;65828;44.726;37.764;2022-12-18T23:25:11;13.13;;;5.90;;
76854;SDS011;65828;44.726;37.764;2022-12-18T23:27:50;13.30;;;5.40;;
76854;SDS011;65828;44.726;37.764;2022-12-18T23:30:38;14.07;;;5.75;;
76854;SDS011;65828;44.726;37.764;2022-12-18T23:33:28;12.80;;;6.30;;
76854;SDS011;65828;44.726;37.764;2022-12-18T23:36:19;13.43;;;5.03;;
76854;SDS011;65828;44.726;37.764;2022-12-18T23:39:09;14.43;;;5.53;;
76854;SDS011;65828;44.726;37.764;2022-12-18T23:42:04;13.20;;;5.60;;
76854;SDS011;65828;44.726;37.764;2022-12-18T23:44:55;13.90;;;5.20;;
76854;SDS011;65828;44.726;37.764;2022-12-18T23:47:58;17.35;;;6.68;;
76854;SDS011;65828;44.726;37.764;2022-12-18T23:50:57;13.20;;;5.22;;
76854;SDS011;65828;44.726;37.764;2022-12-18T23:54:01;11.52;;;4.72;;
76854;SDS011;65828;44.726;37.764;2022-12-18T23:56:53;11.43;;;5.20;;
76854;SDS011;65828;44.726;37.764;2022-12-18T23:59:51;13.18;;;5.53;;
